sensor_id;sensor_type;location;lat;lon;timestamp;pressure;altitude;pressure_sealevel;temperature;humidity
73429;BME280;61643;49.564;17.412;2023-12-28T07:24:35;98512.84;;;-0.05;100.00
73429;BME280;61643;49.564;17.412;2023-12-28T07:27:01;98507.56;;;0.10;100.00
73429;BME280;61643;49.564;17.412;2023-12-28T07:29:27;98517.41;;;0.16;100.00
73429;BME280;61643;49.564;17.412;2023-12-28T07:31:53;98511.66;;;0.27;100.00
73429;BME280;61643;49.564;17.412;2023-12-28T07:34:20;98517.69;;;0.36;100.00
73429;BME280;61643;49.564;17.412;2023-12-28T07:36:46;98509.44;;;0.31;100.00
73429;BME280;61643;49.564;17.412;2023-12-28T07:39:12;98515.38;;;0.33;100.00
73429;BME280;61643;49.564;17.412;2023-12-28T07:41:38;98519.88;;;0.32;100.00
73429;BME280;61643;49.564;17.412;2023-12-28T07:44:04;98532.06;;;0.33;100.00
73429;BME280;61643;49.564;17.412;2023-12-28T07:46:30;98536.75;;;0.31;100.00
73429;BME280;61643;49.564;17.412;2023-12-28T07:48:56;98523.88;;;0.43;100.00
73429;BME280;61643;49.564;17.412;2023-12-28T07:51:22;98524.47;;;0.60;100.00
73429;BME280;61643;49.564;17.412;2023-12-28T07:53:48;98515.22;;;0.70;100.00
73429;BME280;61643;49.564;17.412;2023-12-28T07:56:14;98524.88;;;0.78;100.00
73429;BME280;61643;49.564;17.412;2023-12-28T07:58:40;98520.75;;;0.90;100.00
73429;BME280;61643;49.564;17.412;2023-12-28T08:01:12;98534.50;;;1.00;100.00
73429;BME280;61643;49.564;17.412;2023-12-28T08:03:38;98529.31;;;0.92;100.00
73429;BME280;61643;49.564;17.412;2023-12-28T08:06:04;98527.13;;;0.95;100.00
73429;BME280;61643;49.564;17.412;2023-12-28T08:08:31;98526.44;;;1.08;100.00
73429;BME280;61643;49.564;17.412;2023-12-28T08:10:57;98532.19;;;1.12;100.00
73429;BME280;61643;49.564;17.412;2023-12-28T08:13:23;98543.47;;;1.20;100.00
73429;BME280;61643;49.564;17.412;2023-12-28T08:15:49;98547.38;;;1.24;100.00
73429;BME280;61643;49.564;17.412;2023-12-28T08:18:15;98562.91;;;1.27;100.00
73429;BME280;61643;49.564;17.412;2023-12-28T08:20:41;98570.88;;;1.27;100.00
73429;BME280;61643;49.564;17.412;2023-12-28T08:23:07;98563.78;;;1.34;100.00
73429;BME280;61643;49.564;17.412;2023-12-28T08:25:33;98570.75;;;1.35;100.00
73429;BME280;61643;49.564;17.412;2023-12-28T08:27:59;98569.25;;;1.47;100.00
73429;BME280;61643;49.564;17.412;2023-12-28T08:30:25;98554.25;;;1.61;100.00
73429;BME280;61643;49.564;17.412;2023-12-28T08:32:51;98561.66;;;1.66;100.00
73429;BME280;61643;49.564;17.412;2023-12-28T08:35:17;98571.34;;;1.80;100.00
73429;BME280;61643;49.564;17.412;2023-12-28T08:37:43;98569.56;;;1.87;100.00
73429;BME280;61643;49.564;17.412;2023-12-28T08:40:09;98567.41;;;1.97;100.00
73429;BME280;61643;49.564;17.412;2023-12-28T08:42:35;98565.59;;;2.04;100.00
73429;BME280;61643;49.564;17.412;2023-12-28T08:45:01;98563.66;;;2.19;100.00
73429;BME280;61643;49.564;17.412;2023-12-28T08:47:27;98564.56;;;2.33;100.00
73429;BME280;61643;49.564;17.412;2023-12-28T08:49:53;98570.97;;;2.45;100.00
73429;BME280;61643;49.564;17.412;2023-12-28T08:52:19;98574.28;;;2.54;100.00
73429;BME280;61643;49.564;17.412;2023-12-28T08:54:45;98573.25;;;2.55;100.00
73429;BME280;61643;49.564;17.412;2023-12-28T08:57:11;98577.59;;;2.62;100.00
73429;BME280;61643;49.564;17.412;2023-12-28T08:59:37;98572.69;;;2.66;100.00
73429;BME280;61643;49.564;17.412;2023-12-28T09:02:03;98571.28;;;2.70;100.00
73429;BME280;61643;49.564;17.412;2023-12-28T09:04:29;98572.31;;;2.75;100.00
73429;BME280;61643;49.564;17.412;2023-12-28T09:06:55;98576.22;;;2.79;100.00
73429;BME280;61643;49.564;17.412;2023-12-28T09:09:21;98567.09;;;2.88;100.00
73429;BME280;61643;49.564;17.412;2023-12-28T09:11:47;98559.72;;;2.97;100.00
73429;BME280;61643;49.564;17.412;2023-12-28T09:14:13;98560.38;;;2.99;100.00
73429;BME280;61643;49.564;17.412;2023-12-28T09:16:39;98561.00;;;3.08;100.00
73429;BME280;61643;49.564;17.412;2023-12-28T09:19:07;98548.75;;;3.13;100.00
73429;BME280;61643;49.564;17.412;2023-12-28T09:21:34;98547.31;;;3.17;100.00
73429;BME280;61643;49.564;17.412;2023-12-28T09:24:00;98538.94;;;3.20;100.00
73429;BME280;61643;49.564;17.412;2023-12-28T09:26:26;98543.44;;;3.26;100.00
73429;BME280;61643;49.564;17.412;2023-12-28T09:28:52;98540.59;;;3.28;100.00
73429;BME280;61643;49.564;17.412;2023-12-28T09:31:18;98540.38;;;3.23;100.00
73429;BME280;61643;49.564;17.412;2023-12-28T09:33:44;98539.38;;;3.30;100.00
73429;BME280;61643;49.564;17.412;2023-12-28T09:36:10;98530.38;;;3.31;100.00
73429;BME280;61643;49.564;17.412;2023-12-28T09:38:38;98524.22;;;3.37;100.00
73429;BME280;61643;49.564;17.412;2023-12-28T09:41:15;98518.91;;;3.37;100.00
73429;BME280;61643;49.564;17.412;2023-12-28T09:46:15;98522.38;;;3.44;100.00
73429;BME280;61643;49.564;17.412;2023-12-28T09:48:41;98527.09;;;3.49;100.00
73429;BME280;61643;49.564;17.412;2023-12-28T09:51:07;98534.91;;;3.51;100.00
73429;BME280;61643;49.564;17.412;2023-12-28T09:53:33;98532.63;;;3.47;100.00
73429;BME280;61643;49.564;17.412;2023-12-28T09:55:59;98529.34;;;3.52;100.00
73429;BME280;61643;49.564;17.412;2023-12-28T09:58:26;98526.50;;;3.54;100.00
73429;BME280;61643;49.564;17.412;2023-12-28T10:00:53;98509.50;;;3.55;100.00
73429;BME280;61643;49.564;17.412;2023-12-28T10:03:19;98486.59;;;3.54;100.00
73429;BME280;61643;49.564;17.412;2023-12-28T10:05:46;98492.53;;;3.42;100.00
73429;BME280;61643;49.564;17.412;2023-12-28T10:08:13;98501.91;;;3.52;100.00
73429;BME280;61643;49.564;17.412;2023-12-28T10:10:40;98513.19;;;3.60;100.00
73429;BME280;61643;49.564;17.412;2023-12-28T10:13:07;98512.56;;;3.71;100.00
73429;BME280;61643;49.564;17.412;2023-12-28T10:15:35;98508.69;;;3.74;100.00
73429;BME280;61643;49.564;17.412;2023-12-28T10:18:01;98500.09;;;3.78;100.00
73429;BME280;61643;49.564;17.412;2023-12-28T10:20:28;98496.41;;;3.79;100.00
73429;BME280;61643;49.564;17.412;2023-12-28T10:22:55;98493.34;;;3.76;100.00
73429;BME280;61643;49.564;17.412;2023-12-28T10:25:21;98473.88;;;3.75;100.00
73429;BME280;61643;49.564;17.412;2023-12-28T10:27:50;98491.28;;;3.78;100.00
73429;BME280;61643;49.564;17.412;2023-12-28T10:30:17;98496.81;;;3.83;100.00
73429;BME280;61643;49.564;17.412;2023-12-28T10:32:45;98486.97;;;3.83;100.00
73429;BME280;61643;49.564;17.412;2023-12-28T10:35:11;98492.09;;;3.85;100.00
73429;BME280;61643;49.564;17.412;2023-12-28T10:37:41;98491.66;;;3.88;100.00
73429;BME280;61643;49.564;17.412;2023-12-28T10:40:13;98483.69;;;3.88;100.00
73429;BME280;61643;49.564;17.412;2023-12-28T10:43:00;98478.78;;;3.72;100.00
73429;BME280;61643;49.564;17.412;2023-12-28T10:45:29;98476.72;;;3.80;100.00
73429;BME280;61643;49.564;17.412;2023-12-28T10:48:06;98478.78;;;3.78;100.00
73429;BME280;61643;49.564;17.412;2023-12-28T10:53:12;98471.00;;;3.83;100.00
73429;BME280;61643;49.564;17.412;2023-12-28T10:58:23;98481.03;;;3.75;100.00
73429;BME280;61643;49.564;17.412;2023-12-28T11:00:55;98476.72;;;3.80;100.00
73429;BME280;61643;49.564;17.412;2023-12-28T11:03:28;98460.53;;;3.88;100.00
73429;BME280;61643;49.564;17.412;2023-12-28T11:05:56;98449.06;;;3.81;100.00
73429;BME280;61643;49.564;17.412;2023-12-28T11:08:23;98456.22;;;3.87;100.00
73429;BME280;61643;49.564;17.412;2023-12-28T11:10:50;98441.91;;;3.88;100.00
73429;BME280;61643;49.564;17.412;2023-12-28T11:13:19;98438.41;;;3.88;100.00
73429;BME280;61643;49.564;17.412;2023-12-28T11:15:48;98438.81;;;3.91;100.00
73429;BME280;61643;49.564;17.412;2023-12-28T11:18:15;98441.91;;;3.88;100.00
73429;BME280;61643;49.564;17.412;2023-12-28T11:20:43;98444.53;;;3.95;100.00
73429;BME280;61643;49.564;17.412;2023-12-28T11:23:10;98453.97;;;3.97;100.00
73429;BME280;61643;49.564;17.412;2023-12-28T11:25:37;98449.44;;;3.98;100.00
73429;BME280;61643;49.564;17.412;2023-12-28T11:28:10;98446.59;;;4.00;100.00
73429;BME280;61643;49.564;17.412;2023-12-28T11:30:37;98443.91;;;4.06;100.00
73429;BME280;61643;49.564;17.412;2023-12-28T11:33:06;98444.13;;;4.05;100.00
73429;BME280;61643;49.564;17.412;2023-12-28T11:35:39;98446.53;;;4.13;100.00
73429;BME280;61643;49.564;17.412;2023-12-28T11:38:09;98442.00;;;4.26;100.00
73429;BME280;61643;49.564;17.412;2023-12-28T11:40:46;98437.63;;;4.38;100.00
73429;BME280;61643;49.564;17.412;2023-12-28T11:43:20;98430.41;;;4.45;100.00
73429;BME280;61643;49.564;17.412;2023-12-28T11:45:48;98437.16;;;4.55;100.00
73429;BME280;61643;49.564;17.412;2023-12-28T11:48:26;98428.50;;;4.66;100.00
73429;BME280;61643;49.564;17.412;2023-12-28T11:50:59;98420.50;;;4.66;100.00
73429;BME280;61643;49.564;17.412;2023-12-28T11:53:26;98427.81;;;4.70;100.00
73429;BME280;61643;49.564;17.412;2023-12-28T11:55:52;98423.31;;;4.71;100.00
73429;BME280;61643;49.564;17.412;2023-12-28T11:58:24;98412.66;;;4.71;100.00
73429;BME280;61643;49.564;17.412;2023-12-28T12:00:50;98413.47;;;4.71;100.00
73429;BME280;61643;49.564;17.412;2023-12-28T12:03:16;98407.50;;;4.76;100.00
73429;BME280;61643;49.564;17.412;2023-12-28T12:05:42;98406.34;;;4.65;100.00
73429;BME280;61643;49.564;17.412;2023-12-28T12:08:09;98412.50;;;4.66;100.00
73429;BME280;61643;49.564;17.412;2023-12-28T12:10:40;98395.50;;;4.60;100.00
73429;BME280;61643;49.564;17.412;2023-12-28T12:13:07;98393.06;;;4.59;100.00
73429;BME280;61643;49.564;17.412;2023-12-28T12:15:33;98388.53;;;4.59;100.00
73429;BME280;61643;49.564;17.412;2023-12-28T12:18:03;98377.06;;;4.59;100.00
73429;BME280;61643;49.564;17.412;2023-12-28T12:20:29;98378.00;;;4.71;100.00
73429;BME280;61643;49.564;17.412;2023-12-28T12:22:59;98378.75;;;4.78;100.00
73429;BME280;61643;49.564;17.412;2023-12-28T12:25:26;98367.94;;;4.73;100.00
73429;BME280;61643;49.564;17.412;2023-12-28T12:27:52;98372.50;;;4.66;100.00
73429;BME280;61643;49.564;17.412;2023-12-28T12:30:19;98359.63;;;4.63;100.00
73429;BME280;61643;49.564;17.412;2023-12-28T12:32:45;98358.56;;;4.64;100.00
73429;BME280;61643;49.564;17.412;2023-12-28T12:35:11;98360.25;;;4.58;100.00
73429;BME280;61643;49.564;17.412;2023-12-28T12:37:38;98372.56;;;4.59;100.00
73429;BME280;61643;49.564;17.412;2023-12-28T12:40:04;98363.69;;;4.65;100.00
73429;BME280;61643;49.564;17.412;2023-12-28T12:42:32;98367.25;;;4.53;100.00
73429;BME280;61643;49.564;17.412;2023-12-28T12:44:58;98370.34;;;4.50;100.00
73429;BME280;61643;49.564;17.412;2023-12-28T12:47:25;98360.09;;;4.46;100.00
73429;BME280;61643;49.564;17.412;2023-12-28T12:49:51;98384.25;;;4.58;100.00
73429;BME280;61643;49.564;17.412;2023-12-28T12:52:19;98384.63;;;4.62;100.00
73429;BME280;61643;49.564;17.412;2023-12-28T12:54:53;98364.38;;;4.54;100.00
73429;BME280;61643;49.564;17.412;2023-12-28T12:57:19;98370.91;;;4.58;100.00
73429;BME280;61643;49.564;17.412;2023-12-28T12:59:45;98359.63;;;4.63;100.00
73429;BME280;61643;49.564;17.412;2023-12-28T13:02:11;98351.38;;;4.64;100.00
73429;BME280;61643;49.564;17.412;2023-12-28T13:04:39;98372.22;;;4.42;100.00
73429;BME280;61643;49.564;17.412;2023-12-28T13:07:04;98371.41;;;4.42;100.00
73429;BME280;61643;49.564;17.412;2023-12-28T13:09:30;98376.28;;;4.52;100.00
73429;BME280;61643;49.564;17.412;2023-12-28T13:11:56;98376.69;;;4.55;100.00
73429;BME280;61643;49.564;17.412;2023-12-28T13:14:23;98383.81;;;4.61;100.00
73429;BME280;61643;49.564;17.412;2023-12-28T13:16:49;98369.06;;;4.59;100.00
73429;BME280;61643;49.564;17.412;2023-12-28T13:19:20;98380.41;;;4.47;100.00
73429;BME280;61643;49.564;17.412;2023-12-28T13:21:46;98376.44;;;4.57;100.00
73429;BME280;61643;49.564;17.412;2023-12-28T13:24:12;98385.22;;;4.64;100.00
73429;BME280;61643;49.564;17.412;2023-12-28T13:26:38;98370.63;;;4.73;100.00
73429;BME280;61643;49.564;17.412;2023-12-28T13:29:04;98367.31;;;4.71;100.00
73429;BME280;61643;49.564;17.412;2023-12-28T13:31:30;98365.47;;;4.71;100.00
73429;BME280;61643;49.564;17.412;2023-12-28T13:33:56;98360.34;;;4.76;100.00
73429;BME280;61643;49.564;17.412;2023-12-28T13:36:22;98366.06;;;4.80;100.00
73429;BME280;61643;49.564;17.412;2023-12-28T13:38:48;98362.56;;;4.79;100.00
73429;BME280;61643;49.564;17.412;2023-12-28T13:41:14;98348.66;;;4.71;100.00
73429;BME280;61643;49.564;17.412;2023-12-28T13:43:40;98346.53;;;4.55;100.00
73429;BME280;61643;49.564;17.412;2023-12-28T13:46:06;98355.91;;;4.64;100.00
73429;BME280;61643;49.564;17.412;2023-12-28T13:48:32;98356.50;;;4.66;100.00
73429;BME280;61643;49.564;17.412;2023-12-28T13:50:58;98351.81;;;4.61;100.00
73429;BME280;61643;49.564;17.412;2023-12-28T13:53:24;98360.38;;;4.70;100.00
73429;BME280;61643;49.564;17.412;2023-12-28T13:55:49;98362.00;;;4.71;100.00
73429;BME280;61643;49.564;17.412;2023-12-28T13:58:15;98364.94;;;4.63;100.00
73429;BME280;61643;49.564;17.412;2023-12-28T14:00:41;98350.59;;;4.57;100.00
73429;BME280;61643;49.564;17.412;2023-12-28T14:03:07;98349.00;;;4.50;100.00
73429;BME280;61643;49.564;17.412;2023-12-28T14:05:33;98374.16;;;4.60;100.00
73429;BME280;61643;49.564;17.412;2023-12-28T14:07:59;98379.88;;;4.64;100.00
73429;BME280;61643;49.564;17.412;2023-12-28T14:10:25;98374.56;;;4.64;100.00
73429;BME280;61643;49.564;17.412;2023-12-28T14:12:51;98363.50;;;4.60;100.00
73429;BME280;61643;49.564;17.412;2023-12-28T14:15:17;98372.41;;;4.47;100.00
73429;BME280;61643;49.564;17.412;2023-12-28T14:17:44;98360.16;;;4.40;100.00
73429;BME280;61643;49.564;17.412;2023-12-28T14:20:10;98361.22;;;4.32;100.00
73429;BME280;61643;49.564;17.412;2023-12-28T14:22:40;98364.91;;;4.31;100.00
73429;BME280;61643;49.564;17.412;2023-12-28T14:25:07;98365.53;;;4.33;100.00
73429;BME280;61643;49.564;17.412;2023-12-28T14:27:33;98355.53;;;4.22;100.00
73429;BME280;61643;49.564;17.412;2023-12-28T14:29:59;98365.34;;;4.28;100.00
73429;BME280;61643;49.564;17.412;2023-12-28T14:32:29;98370.66;;;4.28;100.00
73429;BME280;61643;49.564;17.412;2023-12-28T14:34:55;98370.69;;;4.22;100.00
73429;BME280;61643;49.564;17.412;2023-12-28T14:37:21;98371.72;;;4.21;100.00
73429;BME280;61643;49.564;17.412;2023-12-28T14:39:47;98381.16;;;4.17;100.00
73429;BME280;61643;49.564;17.412;2023-12-28T14:42:13;98368.09;;;4.09;100.00
73429;BME280;61643;49.564;17.412;2023-12-28T14:44:39;98371.41;;;4.04;100.00
73429;BME280;61643;49.564;17.412;2023-12-28T14:47:05;98362.78;;;4.09;100.00
73429;BME280;61643;49.564;17.412;2023-12-28T14:49:31;98369.56;;;3.98;100.00
73429;BME280;61643;49.564;17.412;2023-12-28T14:51:57;98370.41;;;3.92;100.00
73429;BME280;61643;49.564;17.412;2023-12-28T14:54:23;98369.94;;;4.02;100.00
73429;BME280;61643;49.564;17.412;2023-12-28T14:56:49;98376.34;;;3.87;100.00
73429;BME280;61643;49.564;17.412;2023-12-28T14:59:15;98375.09;;;3.96;100.00
73429;BME280;61643;49.564;17.412;2023-12-28T15:01:41;98368.56;;;3.92;100.00
73429;BME280;61643;49.564;17.412;2023-12-28T15:04:07;98358.56;;;3.81;100.00
73429;BME280;61643;49.564;17.412;2023-12-28T15:06:33;98361.84;;;3.77;100.00
73429;BME280;61643;49.564;17.412;2023-12-28T15:08:59;98373.09;;;3.85;100.00
73429;BME280;61643;49.564;17.412;2023-12-28T15:11:25;98366.34;;;3.83;100.00
73429;BME280;61643;49.564;17.412;2023-12-28T15:13:51;98360.81;;;3.84;100.00
73429;BME280;61643;49.564;17.412;2023-12-28T15:16:17;98359.00;;;3.78;100.00
73429;BME280;61643;49.564;17.412;2023-12-28T15:18:44;98358.75;;;3.80;100.00
73429;BME280;61643;49.564;17.412;2023-12-28T15:21:10;98357.53;;;3.82;100.00
73429;BME280;61643;49.564;17.412;2023-12-28T15:23:37;98347.91;;;3.81;100.00
73429;BME280;61643;49.564;17.412;2023-12-28T15:26:04;98344.69;;;3.66;100.00
73429;BME280;61643;49.564;17.412;2023-12-28T15:28:32;98354.91;;;3.76;100.00
73429;BME280;61643;49.564;17.412;2023-12-28T15:30:58;98363.50;;;3.78;100.00
73429;BME280;61643;49.564;17.412;2023-12-28T15:33:24;98356.34;;;3.72;100.00
73429;BME280;61643;49.564;17.412;2023-12-28T15:35:50;98352.03;;;3.77;100.00
73429;BME280;61643;49.564;17.412;2023-12-28T15:38:17;98345.72;;;3.72;100.00
73429;BME280;61643;49.564;17.412;2023-12-28T15:40:44;98345.44;;;3.80;100.00
73429;BME280;61643;49.564;17.412;2023-12-28T15:43:10;98343.03;;;3.72;100.00
73429;BME280;61643;49.564;17.412;2023-12-28T15:45:37;98343.88;;;3.72;100.00
73429;BME280;61643;49.564;17.412;2023-12-28T15:48:03;98365.75;;;3.74;100.00
73429;BME280;61643;49.564;17.412;2023-12-28T15:50:29;98369.84;;;3.77;100.00
73429;BME280;61643;49.564;17.412;2023-12-28T15:52:55;98374.94;;;3.85;100.00
73429;BME280;61643;49.564;17.412;2023-12-28T15:55:22;98378.81;;;3.89;100.00
73429;BME280;61643;49.564;17.412;2023-12-28T15:57:48;98352.25;;;3.76;100.00
73429;BME280;61643;49.564;17.412;2023-12-28T16:00:16;98355.53;;;3.71;100.00
73429;BME280;61643;49.564;17.412;2023-12-28T16:02:42;98368.63;;;3.79;100.00
73429;BME280;61643;49.564;17.412;2023-12-28T16:05:08;98366.34;;;3.83;100.00
73429;BME280;61643;49.564;17.412;2023-12-28T16:07:34;98367.81;;;3.66;100.00
73429;BME280;61643;49.564;17.412;2023-12-28T16:10:00;98357.16;;;3.66;100.00
73429;BME280;61643;49.564;17.412;2023-12-28T16:12:26;98361.25;;;3.75;100.00
73429;BME280;61643;49.564;17.412;2023-12-28T16:14:52;98362.09;;;3.62;100.00
73429;BME280;61643;49.564;17.412;2023-12-28T16:17:18;98352.66;;;3.66;100.00
73429;BME280;61643;49.564;17.412;2023-12-28T16:19:45;98359.63;;;3.67;100.00
73429;BME280;61643;49.564;17.412;2023-12-28T16:22:11;98357.00;;;3.61;100.00
73429;BME280;61643;49.564;17.412;2023-12-28T16:24:37;98348.63;;;3.44;100.00
73429;BME280;61643;49.564;17.412;2023-12-28T16:27:03;98343.13;;;3.39;100.00
73429;BME280;61643;49.564;17.412;2023-12-28T16:29:29;98334.72;;;3.42;100.00
73429;BME280;61643;49.564;17.412;2023-12-28T16:31:55;98342.66;;;3.55;100.00
73429;BME280;61643;49.564;17.412;2023-12-28T16:34:27;98341.66;;;3.50;100.00
73429;BME280;61643;49.564;17.412;2023-12-28T16:36:54;98340.63;;;3.57;100.00
73429;BME280;61643;49.564;17.412;2023-12-28T16:39:20;98348.38;;;3.59;100.00
73429;BME280;61643;49.564;17.412;2023-12-28T16:41:46;98343.69;;;3.61;100.00
73429;BME280;61643;49.564;17.412;2023-12-28T16:44:12;98346.16;;;3.49;100.00
73429;BME280;61643;49.564;17.412;2023-12-28T16:46:46;98340.88;;;3.42;100.00
73429;BME280;61643;49.564;17.412;2023-12-28T16:49:13;98339.63;;;3.45;100.00
73429;BME280;61643;49.564;17.412;2023-12-28T16:51:42;98338.16;;;3.56;100.00
73429;BME280;61643;49.564;17.412;2023-12-28T16:54:08;98337.56;;;3.54;100.00
73429;BME280;61643;49.564;17.412;2023-12-28T16:56:35;98340.84;;;3.49;100.00
73429;BME280;61643;49.564;17.412;2023-12-28T16:59:03;98348.63;;;3.44;100.00
73429;BME280;61643;49.564;17.412;2023-12-28T17:01:29;98344.78;;;3.27;100.00
73429;BME280;61643;49.564;17.412;2023-12-28T17:03:55;98344.97;;;3.32;100.00
73429;BME280;61643;49.564;17.412;2023-12-28T17:06:21;98344.78;;;3.27;100.00
73429;BME280;61643;49.564;17.412;2023-12-28T17:08:47;98338.22;;;3.29;100.00
73429;BME280;61643;49.564;17.412;2023-12-28T17:11:15;98343.16;;;3.32;100.00
73429;BME280;61643;49.564;17.412;2023-12-28T17:13:45;98335.56;;;3.29;100.00
73429;BME280;61643;49.564;17.412;2023-12-28T17:16:12;98351.94;;;3.39;100.00
73429;BME280;61643;49.564;17.412;2023-12-28T17:18:38;98356.22;;;3.27;100.00
73429;BME280;61643;49.564;17.412;2023-12-28T17:21:09;98358.91;;;3.14;100.00
73429;BME280;61643;49.564;17.412;2023-12-28T17:23:37;98352.16;;;3.18;100.00
73429;BME280;61643;49.564;17.412;2023-12-28T17:29:00;98342.09;;;3.33;100.00
73429;BME280;61643;49.564;17.412;2023-12-28T17:31:28;98340.69;;;3.31;100.00
73429;BME280;61643;49.564;17.412;2023-12-28T17:33:57;98342.13;;;3.20;100.00
73429;BME280;61643;49.564;17.412;2023-12-28T17:36:24;98344.16;;;3.12;100.00
73429;BME280;61643;49.564;17.412;2023-12-28T17:38:51;98354.63;;;3.13;100.00
73429;BME280;61643;49.564;17.412;2023-12-28T17:41:21;98355.22;;;3.15;100.00
73429;BME280;61643;49.564;17.412;2023-12-28T17:43:59;98362.97;;;3.30;100.00
73429;BME280;61643;49.564;17.412;2023-12-28T17:49:06;98354.59;;;3.39;100.00
73429;BME280;61643;49.564;17.412;2023-12-28T17:51:34;98347.00;;;3.36;100.00
73429;BME280;61643;49.564;17.412;2023-12-28T17:54:01;98353.56;;;3.34;100.00
73429;BME280;61643;49.564;17.412;2023-12-28T17:56:28;98352.34;;;3.23;100.00
73429;BME280;61643;49.564;17.412;2023-12-28T17:58:54;98350.31;;;3.25;100.00
73429;BME280;61643;49.564;17.412;2023-12-28T18:01:20;98354.19;;;3.29;100.00
73429;BME280;61643;49.564;17.412;2023-12-28T18:03:46;98349.69;;;3.17;100.00
73429;BME280;61643;49.564;17.412;2023-12-28T18:06:13;98347.25;;;3.28;100.00
73429;BME280;61643;49.564;17.412;2023-12-28T18:08:39;98360.94;;;3.32;100.00
73429;BME280;61643;49.564;17.412;2023-12-28T18:11:07;98350.31;;;3.25;100.00
73429;BME280;61643;49.564;17.412;2023-12-28T18:13:33;98350.53;;;3.17;100.00
73429;BME280;61643;49.564;17.412;2023-12-28T18:15:59;98349.09;;;2.95;100.00
73429;BME280;61643;49.564;17.412;2023-12-28T18:18:25;98350.31;;;3.12;100.00
73429;BME280;61643;49.564;17.412;2023-12-28T18:20:51;98332.31;;;3.21;100.00
73429;BME280;61643;49.564;17.412;2023-12-28T18:23:20;98347.84;;;3.24;100.00
73429;BME280;61643;49.564;17.412;2023-12-28T18:25:46;98349.47;;;3.31;100.00
73429;BME280;61643;49.564;17.412;2023-12-28T18:28:14;98345.38;;;3.22;100.00
73429;BME280;61643;49.564;17.412;2023-12-28T18:30:40;98333.75;;;3.17;100.00
73429;BME280;61643;49.564;17.412;2023-12-28T18:33:06;98333.53;;;3.31;100.00
73429;BME280;61643;49.564;17.412;2023-12-28T18:35:32;98345.97;;;3.37;100.00
73429;BME280;61643;49.564;17.412;2023-12-28T18:37:58;98344.97;;;3.32;100.00
73429;BME280;61643;49.564;17.412;2023-12-28T18:40:24;98344.56;;;3.35;100.00
73429;BME280;61643;49.564;17.412;2023-12-28T18:42:50;98345.00;;;3.25;100.00
73429;BME280;61643;49.564;17.412;2023-12-28T18:45:16;98350.13;;;3.14;100.00
73429;BME280;61643;49.564;17.412;2023-12-28T18:47:42;98343.34;;;3.31;100.00
73429;BME280;61643;49.564;17.412;2023-12-28T18:50:09;98340.88;;;3.23;100.00
73429;BME280;61643;49.564;17.412;2023-12-28T18:52:35;98339.06;;;3.23;100.00
73429;BME280;61643;49.564;17.412;2023-12-28T18:55:01;98340.06;;;3.22;100.00
73429;BME280;61643;49.564;17.412;2023-12-28T18:57:27;98338.84;;;3.25;100.00
73429;BME280;61643;49.564;17.412;2023-12-28T18:59:53;98346.81;;;3.31;100.00
73429;BME280;61643;49.564;17.412;2023-12-28T19:02:19;98345.78;;;3.39;100.00
73429;BME280;61643;49.564;17.412;2023-12-28T19:04:49;98338.44;;;3.34;100.00
73429;BME280;61643;49.564;17.412;2023-12-28T19:07:15;98331.25;;;3.41;100.00
73429;BME280;61643;49.564;17.412;2023-12-28T19:09:41;98328.59;;;3.41;100.00
73429;BME280;61643;49.564;17.412;2023-12-28T19:12:07;98332.28;;;3.47;100.00
73429;BME280;61643;49.564;17.412;2023-12-28T19:14:34;98323.22;;;3.55;100.00
73429;BME280;61643;49.564;17.412;2023-12-28T19:17:00;98331.41;;;3.60;100.00
73429;BME280;61643;49.564;17.412;2023-12-28T19:19:26;98337.19;;;3.43;100.00
73429;BME280;61643;49.564;17.412;2023-12-28T19:21:59;98348.22;;;3.54;100.00
73429;BME280;61643;49.564;17.412;2023-12-28T19:24:25;98347.16;;;3.55;100.00
73429;BME280;61643;49.564;17.412;2023-12-28T19:26:51;98340.03;;;3.48;100.00
73429;BME280;61643;49.564;17.412;2023-12-28T19:29:17;98338.78;;;3.51;100.00
73429;BME280;61643;49.564;17.412;2023-12-28T19:31:43;98340.03;;;3.48;100.00
73429;BME280;61643;49.564;17.412;2023-12-28T19:34:09;98331.59;;;3.58;100.00
73429;BME280;61643;49.564;17.412;2023-12-28T19:36:35;98332.22;;;3.60;100.00
73429;BME280;61643;49.564;17.412;2023-12-28T19:39:01;98331.78;;;3.70;100.00
73429;BME280;61643;49.564;17.412;2023-12-28T19:41:27;98335.47;;;3.75;100.00
73429;BME280;61643;49.564;17.412;2023-12-28T19:43:53;98340.56;;;3.77;100.00
73429;BME280;61643;49.564;17.412;2023-12-28T19:46:19;98338.50;;;3.79;100.00
73429;BME280;61643;49.564;17.412;2023-12-28T19:48:45;98329.28;;;3.81;100.00
73429;BME280;61643;49.564;17.412;2023-12-28T19:51:12;98335.19;;;3.90;100.00
73429;BME280;61643;49.564;17.412;2023-12-28T19:53:38;98333.72;;;4.01;100.00
73429;BME280;61643;49.564;17.412;2023-12-28T19:56:06;98323.69;;;3.96;100.00
73429;BME280;61643;49.564;17.412;2023-12-28T19:58:33;98328.03;;;3.90;100.00
73429;BME280;61643;49.564;17.412;2023-12-28T20:00:58;98325.09;;;3.98;100.00
73429;BME280;61643;49.564;17.412;2023-12-28T20:03:24;98317.94;;;3.99;100.00
73429;BME280;61643;49.564;17.412;2023-12-28T20:05:50;98316.28;;;4.05;100.00
73429;BME280;61643;49.564;17.412;2023-12-28T20:08:16;98311.78;;;4.05;100.00
73429;BME280;61643;49.564;17.412;2023-12-28T20:10:42;98312.56;;;4.06;100.00
73429;BME280;61643;49.564;17.412;2023-12-28T20:13:08;98320.56;;;4.12;100.00
73429;BME280;61643;49.564;17.412;2023-12-28T20:15:34;98313.63;;;4.05;100.00
73429;BME280;61643;49.564;17.412;2023-12-28T20:18:00;98321.19;;;4.08;100.00
73429;BME280;61643;49.564;17.412;2023-12-28T20:20:26;98301.72;;;4.07;100.00
73429;BME280;61643;49.564;17.412;2023-12-28T20:22:52;98305.16;;;4.14;100.00
73429;BME280;61643;49.564;17.412;2023-12-28T20:25:18;98304.34;;;4.14;100.00